Time;durP1;ratioP1;P1;durP2;ratioP2;P2;SDS_P1;SDS_P2;PMS_P1;PMS_P2;Temp;Humidity;BMP_temperature;BMP_pressure;BME280_temperature;BME280_humidity;BME280_pressure;Samples;Min_cycle;Max_cycle;Signal;HPM_P1;HPM_P2
2021/09/13 00:01:49;;;;;;;4.37;3.80;;;15.40;99.90;;;;;;4913408;29;20188;-96
2021/09/13 00:04:26;;;;;;;4.30;4.00;;;15.50;99.90;;;;;;4929030;29;20464;-96
2021/09/13 00:06:57;;;;;;;5.50;5.00;;;15.40;99.90;;;;;;4916559;29;20451;-94
2021/09/13 00:09:36;;;;;;;5.90;5.40;;;15.40;99.90;;;;;;4909996;29;20459;-95
2021/09/13 00:12:01;;;;;;;5.13;4.70;;;15.40;99.90;;;;;;4901890;29;20856;-94
2021/09/13 00:14:31;;;;;;;4.77;4.37;;;15.50;99.90;;;;;;4907131;29;20441;-94
2021/09/13 00:16:56;;;;;;;5.43;4.93;;;15.70;99.90;;;;;;4908663;29;20199;-95
2021/09/13 00:19:25;;;;;;;5.53;5.13;;;15.70;99.90;;;;;;4907841;29;20444;-94
2021/09/13 00:21:55;;;;;;;5.87;5.43;;;15.70;99.90;;;;;;4909833;29;20207;-94
2021/09/13 00:24:25;;;;;;;6.10;5.60;;;15.60;99.90;;;;;;4904412;29;20453;-96
2021/09/13 00:26:51;;;;;;;6.50;5.90;;;15.70;99.90;;;;;;4926606;29;20465;-96
2021/09/13 00:29:17;;;;;;;6.07;5.53;;;15.70;99.90;;;;;;4913965;29;20491;-96
2021/09/13 00:31:43;;;;;;;5.80;5.30;;;15.80;99.90;;;;;;4917161;29;20444;-96
2021/09/13 00:34:09;;;;;;;6.47;5.87;;;15.70;99.90;;;;;;4917747;29;20485;-96
2021/09/13 00:36:35;;;;;;;6.87;6.17;;;15.60;99.90;;;;;;4928704;29;20454;-96
2021/09/13 00:39:10;;;;;;;7.10;6.40;;;15.40;99.90;;;;;;4910736;29;20457;-96
2021/09/13 00:41:46;;;;;;;6.77;6.27;;;15.30;99.90;;;;;;4912352;29;20464;-96
2021/09/13 00:44:12;;;;;;;6.73;6.13;;;15.20;99.90;;;;;;4909223;29;20987;-95
2021/09/13 00:46:41;;;;;;;7.10;6.50;;;15.20;99.90;;;;;;4903400;29;20685;-94
2021/09/13 00:49:06;;;;;;;6.80;6.20;;;15.20;99.90;;;;;;4906484;29;20803;-94
2021/09/13 00:51:32;;;;;;;7.20;6.50;;;15.30;99.90;;;;;;4902581;29;20452;-94
2021/09/13 00:53:58;;;;;;;6.50;6.00;;;15.40;99.90;;;;;;4907671;29;20208;-95
2021/09/13 00:56:27;;;;;;;6.30;5.80;;;15.40;99.90;;;;;;4907286;29;20456;-96
2021/09/13 00:58:56;;;;;;;6.03;5.53;;;15.40;99.90;;;;;;4911768;29;20452;-96
2021/09/13 01:01:25;;;;;;;6.33;5.83;;;15.40;99.90;;;;;;4911867;29;20841;-96
2021/09/13 01:03:54;;;;;;;6.53;5.37;;;15.50;99.90;;;;;;4909961;29;20555;-96
2021/09/13 01:06:23;;;;;;;6.50;6.00;;;15.50;99.90;;;;;;4906532;29;20453;-94
2021/09/13 01:08:54;;;;;;;6.90;6.37;;;15.40;99.90;;;;;;4906175;29;20488;-96
2021/09/13 01:11:23;;;;;;;6.83;6.33;;;15.30;99.90;;;;;;4907707;29;21010;-95
2021/09/13 01:13:49;;;;;;;8.67;6.40;;;15.30;99.90;;;;;;4913847;29;20475;-95
2021/09/13 01:16:15;;;;;;;10.00;7.20;;;15.30;99.90;;;;;;4907851;29;20447;-94
2021/09/13 01:18:41;;;;;;;7.20;6.60;;;15.30;99.90;;;;;;4907665;28;21273;-94
2021/09/13 01:21:07;;;;;;;6.97;6.37;;;15.20;99.90;;;;;;4906113;29;20464;-94
2021/09/13 01:23:35;;;;;;;10.00;6.10;;;15.20;99.90;;;;;;4903433;29;20192;-93
2021/09/13 01:26:05;;;;;;;6.53;6.03;;;15.10;99.90;;;;;;4907875;29;20485;-94
2021/09/13 01:28:30;;;;;;;7.77;6.97;;;15.00;99.90;;;;;;4903930;29;20542;-94
2021/09/13 01:30:57;;;;;;;6.17;5.67;;;14.90;99.90;;;;;;4910774;29;20440;-94
2021/09/13 01:33:24;;;;;;;6.50;5.97;;;14.80;99.90;;;;;;4904405;29;20607;-94
2021/09/13 01:35:51;;;;;;;6.07;5.50;;;14.80;99.90;;;;;;4913734;29;20448;-94
2021/09/13 01:38:21;;;;;;;5.47;5.07;;;14.90;99.90;;;;;;4903316;29;20449;-94
2021/09/13 01:40:48;;;;;;;7.40;6.70;;;14.80;99.90;;;;;;4908358;29;20455;-94
2021/09/13 01:43:14;;;;;;;5.90;5.40;;;14.70;99.90;;;;;;4907105;29;20465;-94
2021/09/13 01:45:43;;;;;;;5.70;4.67;;;14.70;99.90;;;;;;4901629;29;20930;-93
2021/09/13 01:48:09;;;;;;;5.27;4.77;;;14.80;99.90;;;;;;4903179;29;20326;-93
2021/09/13 01:50:37;;;;;;;7.37;5.40;;;14.80;99.90;;;;;;4917943;29;20449;-94
2021/09/13 01:59:00;;;;;;;6.70;6.07;;;15.20;99.90;;;;;;4890880;29;21047;-91
2021/09/13 02:01:30;;;;;;;6.67;6.07;;;15.10;99.90;;;;;;4901580;29;20515;-92
2021/09/13 02:04:02;;;;;;;6.33;5.73;;;15.10;99.90;;;;;;4895197;29;20484;-91
2021/09/13 02:06:31;;;;;;;6.30;5.80;;;15.10;99.90;;;;;;4918237;29;20457;-91
2021/09/13 02:09:00;;;;;;;6.23;5.73;;;15.00;99.90;;;;;;4901546;29;20535;-91
2021/09/13 02:11:43;;;;;;;6.90;6.30;;;14.90;99.90;;;;;;4899430;29;20464;-85
2021/09/13 02:14:09;;;;;;;6.87;5.97;;;14.70;99.90;;;;;;4901603;29;20468;-93
2021/09/13 02:16:36;;;;;;;6.53;5.93;;;14.70;99.90;;;;;;4902257;29;20455;-91
2021/09/13 02:19:02;;;;;;;6.43;5.83;;;14.70;99.90;;;;;;4899767;29;20232;-92
2021/09/13 02:21:28;;;;;;;6.83;6.33;;;14.80;99.90;;;;;;4897133;29;20452;-92
2021/09/13 02:23:53;;;;;;;6.60;6.07;;;14.80;99.90;;;;;;4899676;28;21049;-92
2021/09/13 02:26:19;;;;;;;6.50;5.90;;;14.70;99.90;;;;;;4901387;29;20219;-91
2021/09/13 02:28:46;;;;;;;6.00;5.43;;;14.70;99.90;;;;;;4900258;29;20694;-91
2021/09/13 02:31:12;;;;;;;6.03;5.53;;;14.80;99.90;;;;;;4898320;29;20290;-91
2021/09/13 02:33:39;;;;;;;6.73;6.00;;;14.90;99.90;;;;;;4897909;29;20479;-91
2021/09/13 02:36:05;;;;;;;6.20;5.60;;;14.90;99.90;;;;;;4899053;29;20455;-92
2021/09/13 02:38:32;;;;;;;6.33;5.83;;;14.90;99.90;;;;;;4913519;29;20464;-91
2021/09/13 02:40:59;;;;;;;6.07;5.57;;;14.80;99.90;;;;;;4911583;28;20287;-90
2021/09/13 02:43:46;;;;;;;5.93;5.43;;;14.70;99.90;;;;;;4900282;29;21058;-91
2021/09/13 02:46:18;;;;;;;6.03;5.50;;;14.60;99.90;;;;;;4886820;29;20479;-92
2021/09/13 02:48:44;;;;;;;6.13;5.30;;;14.60;99.90;;;;;;4898936;29;20503;-91
2021/09/13 02:51:11;;;;;;;5.93;5.43;;;14.50;99.90;;;;;;4901402;29;20448;-91
2021/09/13 02:53:37;;;;;;;5.27;4.83;;;14.40;99.90;;;;;;4901368;29;20569;-91
2021/09/13 02:56:03;;;;;;;5.40;5.00;;;14.30;99.90;;;;;;4905545;29;20457;-91
2021/09/13 02:58:33;;;;;;;5.57;5.17;;;14.30;99.90;;;;;;4902809;29;20460;-91
2021/09/13 03:00:59;;;;;;;5.57;5.07;;;14.40;99.90;;;;;;4904932;29;20962;-91
2021/09/13 03:03:26;;;;;;;6.13;5.63;;;14.40;99.90;;;;;;4901506;29;20816;-92
2021/09/13 03:05:53;;;;;;;5.27;4.80;;;14.40;99.90;;;;;;4910282;29;20444;-91
2021/09/13 03:08:19;;;;;;;4.33;4.03;;;14.30;99.90;;;;;;4904982;29;20636;-92
2021/09/13 03:10:45;;;;;;;5.07;4.67;;;14.40;99.90;;;;;;4905014;29;20851;-92
2021/09/13 03:13:11;;;;;;;5.67;5.07;;;14.30;99.90;;;;;;4903850;29;20768;-91
2021/09/13 03:15:36;;;;;;;5.90;5.13;;;14.10;99.90;;;;;;4901897;29;20452;-91
2021/09/13 03:18:02;;;;;;;5.90;5.50;;;14.10;99.90;;;;;;4907102;29;20460;-92
2021/09/13 03:20:28;;;;;;;6.33;5.77;;;14.10;99.90;;;;;;4908886;29;20936;-92
2021/09/13 03:22:54;;;;;;;6.47;5.87;;;14.00;99.90;;;;;;4901617;29;20200;-92
2021/09/13 03:25:19;;;;;;;5.43;5.00;;;14.00;99.90;;;;;;4906860;29;20220;-93
2021/09/13 03:27:45;;;;;;;6.50;5.90;;;14.00;99.90;;;;;;4903655;29;20232;-91
2021/09/13 03:30:11;;;;;;;5.83;5.33;;;13.90;99.90;;;;;;4906706;29;20192;-92
2021/09/13 03:32:37;;;;;;;6.03;5.53;;;13.90;99.90;;;;;;4902073;29;20346;-91
2021/09/13 03:35:03;;;;;;;5.70;5.30;;;13.90;99.90;;;;;;4904825;29;20981;-92
2021/09/13 03:37:29;;;;;;;6.10;5.60;;;13.90;99.90;;;;;;4904364;29;20208;-90
2021/09/13 03:39:54;;;;;;;7.30;6.20;;;13.80;99.90;;;;;;4901012;29;20463;-90
2021/09/13 03:42:20;;;;;;;7.43;5.70;;;13.70;99.90;;;;;;4904398;29;20189;-91
2021/09/13 03:44:46;;;;;;;5.93;5.53;;;13.70;99.90;;;;;;4903869;29;20188;-90
2021/09/13 03:47:11;;;;;;;6.70;6.00;;;13.60;99.90;;;;;;4903789;29;20240;-91
2021/09/13 03:49:37;;;;;;;6.40;5.80;;;13.60;99.90;;;;;;4922035;29;20216;-91
2021/09/13 03:52:07;;;;;;;6.30;5.80;;;13.50;99.90;;;;;;4903849;29;20228;-91
2021/09/13 03:54:34;;;;;;;8.97;5.60;;;13.50;99.90;;;;;;4902054;29;20221;-92
2021/09/13 03:56:59;;;;;;;6.63;5.13;;;13.60;99.90;;;;;;4913614;29;20544;-92
2021/09/13 03:59:25;;;;;;;5.97;5.20;;;13.60;99.90;;;;;;4905166;29;21021;-92
2021/09/13 04:01:51;;;;;;;5.90;5.30;;;13.70;99.90;;;;;;4907763;29;20718;-90
2021/09/13 04:04:21;;;;;;;6.87;5.43;;;13.70;99.90;;;;;;4917797;29;20249;-89
2021/09/13 04:06:50;;;;;;;7.10;6.23;;;13.70;99.90;;;;;;4904395;29;20444;-96
2021/09/13 04:12:21;;;;;;;7.80;5.90;;;13.60;99.90;;;;;;4869144;29;20445;-92
2021/09/13 04:14:46;;;;;;;6.60;6.00;;;13.50;99.90;;;;;;4854369;29;20462;-91
2021/09/13 04:17:12;;;;;;;6.20;5.60;;;13.60;99.90;;;;;;4874784;29;20287;-90
2021/09/13 04:19:38;;;;;;;7.00;6.20;;;13.50;99.90;;;;;;4904904;29;20192;-92
2021/09/13 04:22:07;;;;;;;6.50;5.90;;;13.50;99.90;;;;;;4899467;29;20197;-89
2021/09/13 04:24:32;;;;;;;6.60;5.90;;;13.40;99.90;;;;;;4902182;29;20188;-89
2021/09/13 04:27:05;;;;;;;6.20;5.60;;;13.50;99.90;;;;;;4902971;29;20512;-91
2021/09/13 04:29:36;;;;;;;6.33;5.40;;;13.60;99.90;;;;;;4904568;29;20214;-90
2021/09/13 04:32:02;;;;;;;8.50;5.83;;;13.40;99.90;;;;;;4901082;29;20440;-90
2021/09/13 04:34:27;;;;;;;5.57;5.07;;;13.30;99.90;;;;;;4903814;29;20200;-91
2021/09/13 04:36:53;;;;;;;6.10;5.60;;;13.30;99.90;;;;;;4911429;29;20200;-89
2021/09/13 04:39:19;;;;;;;6.73;6.13;;;13.40;99.90;;;;;;4904932;29;20201;-90
2021/09/13 04:41:44;;;;;;;6.50;6.00;;;13.40;99.90;;;;;;4902239;29;20220;-88
2021/09/13 04:44:28;;;;;;;6.10;5.60;;;13.30;99.90;;;;;;4901978;29;20296;-89
2021/09/13 04:47:08;;;;;;;7.00;6.40;;;13.30;99.90;;;;;;4902883;29;20189;-93
2021/09/13 04:49:34;;;;;;;7.10;6.40;;;13.20;99.90;;;;;;4903904;29;20900;-94
2021/09/13 04:52:00;;;;;;;6.43;5.70;;;13.20;99.90;;;;;;4904886;29;20448;-95
2021/09/13 04:54:32;;;;;;;7.33;6.73;;;13.30;99.90;;;;;;4903353;29;20189;-93
2021/09/13 04:56:58;;;;;;;7.00;6.43;;;13.40;99.90;;;;;;4904330;29;20200;-93
2021/09/13 04:59:27;;;;;;;6.63;5.97;;;13.40;99.90;;;;;;4906625;29;20453;-93
2021/09/13 05:01:53;;;;;;;6.53;6.03;;;13.60;99.90;;;;;;4902158;29;20214;-91
2021/09/13 05:04:35;;;;;;;6.23;5.73;;;13.70;99.90;;;;;;4902447;29;20452;-96
2021/09/13 05:07:13;;;;;;;6.87;6.27;;;13.80;99.90;;;;;;4907312;29;20216;-95
2021/09/13 05:09:40;;;;;;;7.73;6.43;;;13.80;99.90;;;;;;4914279;29;20453;-93
2021/09/13 05:12:12;;;;;;;8.07;5.80;;;13.60;99.90;;;;;;4908869;29;20791;-93
2021/09/13 05:14:37;;;;;;;7.20;6.50;;;13.50;99.90;;;;;;4878071;29;20452;-93
2021/09/13 05:17:06;;;;;;;6.63;6.03;;;13.40;99.90;;;;;;4908999;29;20927;-96
2021/09/13 05:19:34;;;;;;;6.80;6.20;;;13.40;99.90;;;;;;4906892;29;20185;-94
2021/09/13 05:22:20;;;;;;;6.67;6.17;;;13.60;99.90;;;;;;4906801;29;20456;-92
2021/09/13 05:24:45;;;;;;;6.70;6.10;;;13.60;99.90;;;;;;4904219;29;20196;-94
2021/09/13 05:27:11;;;;;;;5.80;5.20;;;13.60;99.90;;;;;;4910281;29;20472;-95
2021/09/13 05:29:39;;;;;;;6.57;5.93;;;13.60;99.90;;;;;;4907260;29;20552;-93
2021/09/13 05:32:11;;;;;;;5.80;5.30;;;13.60;99.90;;;;;;4910823;29;20184;-95
2021/09/13 05:34:45;;;;;;;6.00;5.60;;;13.70;99.90;;;;;;4906510;29;20460;-91
2021/09/13 05:37:13;;;;;;;6.30;4.93;;;13.70;99.90;;;;;;4907344;29;20472;-94
2021/09/13 05:40:00;;;;;;;5.97;5.50;;;13.70;99.90;;;;;;4889849;29;20510;-94
2021/09/13 05:42:27;;;;;;;6.30;5.80;;;13.80;99.90;;;;;;4926154;29;20464;-94
2021/09/13 05:44:53;;;;;;;5.67;4.83;;;13.80;99.90;;;;;;4906325;29;20844;-93
2021/09/13 05:47:18;;;;;;;7.17;5.63;;;13.80;99.90;;;;;;4903172;29;20476;-90
2021/09/13 05:49:44;;;;;;;6.70;5.60;;;13.80;99.90;;;;;;4903748;29;20247;-90
2021/09/13 05:52:10;;;;;;;7.10;6.50;;;13.70;99.90;;;;;;4899532;29;20675;-90
2021/09/13 05:54:35;;;;;;;7.10;6.50;;;13.60;99.90;;;;;;4901728;29;20200;-92
2021/09/13 05:57:01;;;;;;;8.47;6.23;;;13.60;99.90;;;;;;4900762;29;20268;-90
2021/09/13 05:59:27;;;;;;;8.50;7.83;;;13.60;99.90;;;;;;4903230;29;20194;-92
2021/09/13 06:01:52;;;;;;;8.07;7.23;;;13.50;99.90;;;;;;4904676;29;20207;-93
2021/09/13 06:04:18;;;;;;;7.40;6.80;;;13.50;99.90;;;;;;4905576;29;20184;-93
2021/09/13 06:06:44;;;;;;;7.23;6.50;;;13.50;99.90;;;;;;4902032;29;20197;-93
2021/09/13 06:09:10;;;;;;;7.10;5.60;;;13.60;99.90;;;;;;4915106;29;20212;-94
2021/09/13 06:11:50;;;;;;;5.73;5.33;;;13.70;99.90;;;;;;4904146;29;20184;-95
2021/09/13 06:14:16;;;;;;;9.57;8.67;;;13.80;99.90;;;;;;4906214;29;20459;-93
2021/09/13 06:16:43;;;;;;;13.27;10.97;;;13.90;99.90;;;;;;4904769;29;20185;-94
2021/09/13 06:19:10;;;;;;;9.50;7.53;;;13.90;99.90;;;;;;4902097;29;20470;-94
2021/09/13 06:21:38;;;;;;;6.40;5.80;;;14.00;99.90;;;;;;4905755;29;20473;-95
2021/09/13 06:24:10;;;;;;;6.57;6.07;;;14.10;99.90;;;;;;4917479;29;20445;-94
2021/09/13 06:26:36;;;;;;;6.50;6.00;;;14.20;99.90;;;;;;4904197;29;21052;-96
2021/09/13 06:29:02;;;;;;;7.57;6.97;;;14.30;99.90;;;;;;4907396;29;20488;-94
2021/09/13 06:31:28;;;;;;;9.77;6.77;;;14.50;99.90;;;;;;4904713;29;20216;-95
2021/09/13 06:33:53;;;;;;;11.23;6.80;;;14.60;99.90;;;;;;4903532;29;20456;-93
2021/09/13 06:36:19;;;;;;;9.73;6.30;;;15.00;99.90;;;;;;4903156;29;20188;-93
2021/09/13 06:38:45;;;;;;;6.80;6.20;;;15.10;99.90;;;;;;4901448;29;20642;-93
2021/09/13 06:41:15;;;;;;;6.77;6.17;;;15.30;99.90;;;;;;4901275;29;20283;-94
2021/09/13 06:43:45;;;;;;;7.47;6.87;;;15.40;99.90;;;;;;4900583;29;20488;-90
2021/09/13 06:46:33;;;;;;;8.43;6.30;;;15.50;99.90;;;;;;4901238;29;20448;-92
2021/09/13 06:48:59;;;;;;;8.60;7.27;;;15.50;99.90;;;;;;4904415;29;20484;-91
2021/09/13 06:51:30;;;;;;;7.63;6.90;;;15.60;99.90;;;;;;4900179;29;20447;-92
2021/09/13 06:53:56;;;;;;;7.33;6.63;;;15.70;99.90;;;;;;4904899;29;20457;-92
2021/09/13 06:56:23;;;;;;;10.20;7.37;;;15.60;99.90;;;;;;4902050;29;20619;-92
2021/09/13 06:58:49;;;;;;;9.30;7.70;;;15.70;99.90;;;;;;4902005;29;20869;-91
2021/09/13 07:01:25;;;;;;;8.97;7.00;;;16.00;99.90;;;;;;4902028;29;20498;-92
2021/09/13 07:03:57;;;;;;;9.10;7.43;;;16.10;99.90;;;;;;4898083;29;20967;-92
2021/09/13 07:06:30;;;;;;;8.47;7.53;;;16.10;99.90;;;;;;4902273;29;21065;-92
2021/09/13 07:11:53;;;;;;;8.00;7.20;;;16.40;99.90;;;;;;4898029;28;20512;-92
2021/09/13 07:14:18;;;;;;;6.07;5.60;;;16.50;99.90;;;;;;4897432;29;20548;-91
2021/09/13 07:16:44;;;;;;;6.53;5.93;;;16.70;99.90;;;;;;4902488;29;20641;-90
2021/09/13 07:19:09;;;;;;;5.93;5.33;;;16.90;99.90;;;;;;4893568;29;20192;-90
2021/09/13 07:21:35;;;;;;;5.70;5.20;;;17.10;99.90;;;;;;4898170;29;20572;-91
2021/09/13 07:24:01;;;;;;;6.70;5.80;;;17.30;99.90;;;;;;4899160;29;20244;-88
2021/09/13 07:26:28;;;;;;;6.60;6.00;;;17.30;99.90;;;;;;4900567;29;20212;-90
2021/09/13 07:29:05;;;;;;;7.30;6.70;;;17.40;99.90;;;;;;4900984;29;20527;-89
2021/09/13 07:31:31;;;;;;;6.90;6.33;;;17.20;99.90;;;;;;4913341;29;20466;-89
2021/09/13 07:33:59;;;;;;;6.97;6.37;;;17.00;99.90;;;;;;4893483;29;20559;-90
2021/09/13 07:36:25;;;;;;;7.40;6.80;;;16.90;99.90;;;;;;4902969;29;20569;-91
2021/09/13 07:39:01;;;;;;;7.23;6.57;;;17.00;99.90;;;;;;4920547;29;20690;-91
2021/09/13 07:41:27;;;;;;;6.67;5.97;;;17.10;99.90;;;;;;4907666;29;20207;-94
2021/09/13 07:43:52;;;;;;;6.33;5.83;;;17.30;99.90;;;;;;4907995;29;20515;-84
2021/09/13 08:01:45;;;;;;;6.60;6.00;;;18.70;99.90;;;;;;4960735;28;20470;-88
2021/09/13 08:04:11;;;;;;;6.93;5.30;;;18.70;99.90;;;;;;4944797;28;20512;-88
2021/09/13 08:06:37;;;;;;;5.83;5.33;;;18.60;99.90;;;;;;4945695;28;20216;-89
2021/09/13 08:09:06;;;;;;;5.53;5.13;;;18.60;99.90;;;;;;4943017;28;20218;-89
2021/09/13 08:11:32;;;;;;;6.50;5.90;;;18.70;99.90;;;;;;4964767;28;20865;-89
2021/09/13 08:13:57;;;;;;;5.70;5.13;;;18.70;99.90;;;;;;4959745;28;20596;-89
2021/09/13 08:16:30;;;;;;;5.90;5.33;;;18.70;99.90;;;;;;4945105;28;20213;-95
2021/09/13 08:18:58;;;;;;;5.73;4.80;;;18.60;99.90;;;;;;4943658;28;20202;-90
2021/09/13 08:21:26;;;;;;;5.50;5.20;;;18.70;99.90;;;;;;4945661;28;20523;-89
2021/09/13 08:23:52;;;;;;;7.13;5.13;;;19.10;99.90;;;;;;4945089;28;20827;-90
2021/09/13 08:26:17;;;;;;;6.47;5.97;;;19.30;99.90;;;;;;4957069;28;20454;-91
2021/09/13 08:28:43;;;;;;;5.83;4.63;;;19.40;99.90;;;;;;4942917;28;20727;-91
2021/09/13 08:31:10;;;;;;;5.63;4.93;;;19.60;99.90;;;;;;4946424;28;20192;-89
2021/09/13 08:33:36;;;;;;;5.27;4.87;;;19.90;99.90;;;;;;4942684;28;20542;-90
2021/09/13 08:36:03;;;;;;;5.67;5.13;;;19.70;99.90;;;;;;4945631;28;20939;-90
2021/09/13 08:38:30;;;;;;;7.50;5.20;;;19.60;99.90;;;;;;4948093;28;20513;-90
2021/09/13 08:40:55;;;;;;;5.60;5.20;;;19.60;99.90;;;;;;4962729;28;20498;-90
2021/09/13 08:43:22;;;;;;;4.77;4.47;;;19.70;99.90;;;;;;4944942;28;20894;-89
2021/09/13 08:46:02;;;;;;;4.67;4.27;;;19.90;99.90;;;;;;4943460;28;20210;-90
2021/09/13 08:48:36;;;;;;;4.40;4.10;;;20.30;99.90;;;;;;4939581;28;20553;-91
2021/09/13 08:51:19;;;;;;;4.43;4.03;;;20.60;99.90;;;;;;4967448;28;20477;-91
2021/09/13 08:53:54;;;;;;;5.67;4.10;;;20.90;99.90;;;;;;4944774;28;20554;-90
2021/09/13 08:56:27;;;;;;;4.87;4.47;;;21.30;99.90;;;;;;4944793;28;20838;-91
2021/09/13 08:58:54;;;;;;;5.00;4.60;;;21.40;99.90;;;;;;4927793;28;20798;-89
2021/09/13 09:01:21;;;;;;;4.37;4.00;;;21.40;99.90;;;;;;4946477;28;20805;-91
2021/09/13 09:03:50;;;;;;;4.10;3.80;;;21.70;99.90;;;;;;4941761;28;20446;-90
2021/09/13 09:06:30;;;;;;;4.77;4.40;;;22.00;99.90;;;;;;4946957;28;20447;-91
2021/09/13 09:09:01;;;;;;;4.47;4.07;;;21.90;99.90;;;;;;4950927;28;20484;-90
2021/09/13 09:11:46;;;;;;;4.37;3.97;;;22.00;99.90;;;;;;4950081;28;20442;-90
2021/09/13 09:14:44;;;;;;;4.37;4.07;;;22.10;99.90;;;;;;4938901;28;20437;-92
2021/09/13 09:17:29;;;;;;;4.23;3.93;;;22.40;99.90;;;;;;4927303;28;20450;-91
2021/09/13 09:20:06;;;;;;;5.93;4.50;;;22.20;99.90;;;;;;4939363;28;20449;-92
2021/09/13 09:22:37;;;;;;;4.60;4.20;;;22.30;99.90;;;;;;4937231;28;20438;-91
2021/09/13 09:25:05;;;;;;;4.20;3.90;;;22.30;99.90;;;;;;4930639;28;20501;-90
2021/09/13 09:27:31;;;;;;;5.70;4.20;;;22.50;99.90;;;;;;4941880;28;20481;-93
2021/09/13 09:30:12;;;;;;;4.40;4.10;;;22.60;99.90;;;;;;4943528;28;20811;-90
2021/09/13 09:32:41;;;;;;;4.50;4.20;;;22.70;99.90;;;;;;4944771;28;20216;-89
2021/09/13 09:35:16;;;;;;;3.97;3.67;;;22.80;99.90;;;;;;4937763;28;20855;-91
2021/09/13 09:37:52;;;;;;;4.20;3.90;;;22.90;99.90;;;;;;4956763;28;20834;-92
2021/09/13 09:40:29;;;;;;;4.40;4.10;;;23.00;99.90;;;;;;4942178;28;20457;-90
2021/09/13 09:42:55;;;;;;;4.47;4.07;;;22.90;99.90;;;;;;4942233;28;20190;-90
2021/09/13 09:45:21;;;;;;;4.40;3.70;;;22.70;99.90;;;;;;4938874;28;20485;-92
2021/09/13 09:48:07;;;;;;;3.93;3.63;;;23.00;99.90;;;;;;4941640;28;20222;-92
2021/09/13 09:50:34;;;;;;;4.33;4.03;;;23.10;99.90;;;;;;4961959;28;20195;-90
2021/09/13 09:53:20;;;;;;;4.50;4.20;;;23.30;99.90;;;;;;4961465;28;20450;-92
2021/09/13 09:55:50;;;;;;;3.83;3.53;;;23.60;99.90;;;;;;4940305;28;20433;-89
2021/09/13 09:58:16;;;;;;;4.10;3.80;;;23.80;99.90;;;;;;4941514;28;20462;-91
2021/09/13 10:00:46;;;;;;;4.50;4.20;;;24.00;99.90;;;;;;4955506;28;20457;-91
2021/09/13 10:03:30;;;;;;;4.77;4.30;;;23.90;99.90;;;;;;4944207;28;20195;-90
2021/09/13 10:05:56;;;;;;;4.40;4.00;;;24.00;99.70;;;;;;4941496;28;20448;-92
2021/09/13 10:08:23;;;;;;;4.17;3.87;;;24.10;99.90;;;;;;4944279;28;20481;-92
2021/09/13 10:10:48;;;;;;;6.13;4.17;;;24.40;99.40;;;;;;4944547;28;20220;-89
2021/09/13 10:13:14;;;;;;;5.07;4.67;;;24.50;99.50;;;;;;4940566;28;20485;-92
2021/09/13 10:15:41;;;;;;;4.80;4.40;;;24.60;99.90;;;;;;4938548;28;20186;-91
2021/09/13 10:18:07;;;;;;;4.97;4.60;;;24.70;99.60;;;;;;4942187;28;20301;-91
2021/09/13 10:20:34;;;;;;;5.10;4.47;;;24.80;98.80;;;;;;4944524;28;20510;-91
2021/09/13 10:23:00;;;;;;;5.27;4.70;;;24.90;99.90;;;;;;4949274;28;20964;-91
2021/09/13 10:25:32;;;;;;;5.00;4.70;;;24.80;99.90;;;;;;4944541;28;20473;-91
2021/09/13 10:28:04;;;;;;;5.03;4.53;;;25.00;99.70;;;;;;4945423;28;20509;-90
2021/09/13 10:30:30;;;;;;;5.27;4.73;;;25.30;99.60;;;;;;4938407;28;20969;-91
2021/09/13 10:33:13;;;;;;;4.83;4.53;;;25.00;98.30;;;;;;4942230;28;20446;-89
2021/09/13 10:35:57;;;;;;;5.50;5.00;;;24.70;99.90;;;;;;4941508;28;20676;-90
2021/09/13 10:38:40;;;;;;;5.13;4.73;;;25.00;98.60;;;;;;4940984;28;20457;-92
2021/09/13 10:41:06;;;;;;;6.20;5.60;;;24.90;99.40;;;;;;4952115;28;20449;-92
2021/09/13 10:43:32;;;;;;;5.03;4.63;;;24.80;99.90;;;;;;4942377;28;20449;-92
2021/09/13 10:45:58;;;;;;;4.60;4.30;;;25.10;99.30;;;;;;4957685;28;20245;-91
2021/09/13 10:48:23;;;;;;;5.83;4.97;;;25.30;98.90;;;;;;4940817;28;20840;-91
2021/09/13 10:50:52;;;;;;;5.10;4.70;;;25.40;98.90;;;;;;4938861;28;20240;-91
2021/09/13 10:53:29;;;;;;;5.23;4.83;;;25.50;99.10;;;;;;4938872;28;20241;-91
2021/09/13 10:55:59;;;;;;;5.40;4.90;;;25.80;98.50;;;;;;4941497;28;20814;-91
2021/09/13 10:58:43;;;;;;;5.37;4.87;;;25.80;98.80;;;;;;4940850;28;21534;-91
2021/09/13 11:01:20;;;;;;;5.07;4.67;;;25.80;98.00;;;;;;4955403;28;20449;-90
2021/09/13 11:03:59;;;;;;;40.07;36.70;;;26.00;98.60;;;;;;4942858;28;20540;-91
2021/09/13 11:06:31;;;;;;;5.77;5.37;;;26.30;96.60;;;;;;4955595;28;20476;-90
2021/09/13 11:09:02;;;;;;;4.47;4.17;;;26.50;98.10;;;;;;4950300;28;20485;-89
2021/09/13 11:11:57;;;;;;;4.83;4.50;;;26.60;97.20;;;;;;4960157;28;20468;-90
2021/09/13 11:14:34;;;;;;;5.10;4.60;;;26.60;96.10;;;;;;4940971;28;20469;-90
2021/09/13 11:17:02;;;;;;;5.33;4.93;;;26.50;96.30;;;;;;4943163;28;20561;-89
2021/09/13 11:19:29;;;;;;;4.43;4.03;;;26.60;96.80;;;;;;4959214;28;20476;-89
2021/09/13 11:22:01;;;;;;;4.90;4.60;;;26.90;94.90;;;;;;4945509;28;20881;-89
2021/09/13 11:24:52;;;;;;;5.50;5.10;;;26.80;95.30;;;;;;4956321;28;20959;-90
2021/09/13 11:27:20;;;;;;;5.10;4.80;;;26.60;96.10;;;;;;4925084;28;20636;-90
2021/09/13 11:29:51;;;;;;;4.57;4.27;;;26.60;97.30;;;;;;4954377;28;20448;-89
2021/09/13 11:32:18;;;;;;;4.53;4.23;;;26.70;96.10;;;;;;4947201;28;20944;-91
2021/09/13 11:34:46;;;;;;;5.93;4.90;;;27.20;93.90;;;;;;4925535;28;20459;-89
2021/09/13 11:37:30;;;;;;;5.10;4.70;;;27.40;94.10;;;;;;4944907;28;20793;-89
2021/09/13 11:40:01;;;;;;;4.90;4.50;;;26.50;94.10;;;;;;4946076;28;20458;-91
2021/09/13 11:42:33;;;;;;;4.70;4.30;;;26.80;94.50;;;;;;4942047;28;20453;-91
2021/09/13 11:45:06;;;;;;;4.50;4.20;;;27.40;93.80;;;;;;4940837;28;20445;-92
2021/09/13 11:47:34;;;;;;;4.60;4.30;;;27.90;93.00;;;;;;4944692;28;20552;-90
2021/09/13 11:50:02;;;;;;;4.90;4.60;;;28.20;93.70;;;;;;4942856;28;20593;-91
2021/09/13 11:52:36;;;;;;;4.80;4.50;;;28.30;94.00;;;;;;4940669;28;20460;-89
2021/09/13 11:55:17;;;;;;;5.23;4.73;;;28.20;93.30;;;;;;4942208;28;20461;-89
2021/09/13 11:57:48;;;;;;;4.70;4.40;;;28.50;93.00;;;;;;4944249;28;20456;-90
2021/09/13 12:00:31;;;;;;;4.50;4.20;;;28.20;92.30;;;;;;4943950;28;20453;-90
2021/09/13 12:03:00;;;;;;;5.10;4.80;;;27.30;92.60;;;;;;4949592;28;20453;-90
2021/09/13 12:05:29;;;;;;;4.77;4.47;;;26.80;93.30;;;;;;4942134;28;20778;-90
2021/09/13 12:07:56;;;;;;;4.73;4.33;;;27.20;93.90;;;;;;4957502;28;20481;-89
2021/09/13 12:10:24;;;;;;;4.27;3.97;;;26.60;92.40;;;;;;4945268;28;20473;-89
2021/09/13 12:12:52;;;;;;;4.60;4.23;;;27.00;93.60;;;;;;4950818;28;21836;-90
2021/09/13 12:15:58;;;;;;;4.13;3.83;;;27.50;91.30;;;;;;4943711;28;20442;-90
2021/09/13 12:18:30;;;;;;;3.80;3.50;;;28.10;91.60;;;;;;4938354;28;20460;-90
2021/09/13 12:20:56;;;;;;;4.07;3.77;;;28.40;90.00;;;;;;4943570;28;20442;-90
2021/09/13 12:23:27;;;;;;;3.47;3.27;;;28.60;88.90;;;;;;4946160;28;20465;-92
2021/09/13 12:26:03;;;;;;;3.37;3.17;;;28.90;90.00;;;;;;4947354;28;20186;-90
2021/09/13 12:28:33;;;;;;;4.10;3.80;;;28.70;87.50;;;;;;4965618;28;21242;-89
2021/09/13 12:31:20;;;;;;;3.60;3.30;;;28.70;87.60;;;;;;4943119;28;20446;-90
2021/09/13 12:33:48;;;;;;;3.40;3.20;;;28.50;85.30;;;;;;4938673;28;20472;-89
2021/09/13 12:36:14;;;;;;;3.90;3.60;;;28.90;88.80;;;;;;4943806;28;20859;-90
2021/09/13 12:38:42;;;;;;;3.30;3.10;;;28.40;85.20;;;;;;4959142;28;20453;-89
2021/09/13 12:41:08;;;;;;;4.43;3.60;;;28.60;86.10;;;;;;4941697;28;20190;-91
2021/09/13 12:43:39;;;;;;;4.10;3.80;;;28.30;86.40;;;;;;4943669;28;21030;-91
2021/09/13 12:46:10;;;;;;;4.07;3.80;;;28.20;84.90;;;;;;4941587;28;20622;-89
2021/09/13 12:48:47;;;;;;;3.73;3.53;;;28.00;86.60;;;;;;4944207;28;21302;-88
2021/09/13 12:51:15;;;;;;;3.50;3.20;;;28.40;87.20;;;;;;4941679;28;20441;-90
2021/09/13 12:54:00;;;;;;;3.80;3.60;;;28.90;83.00;;;;;;4942861;28;20823;-88
2021/09/13 12:56:28;;;;;;;3.83;3.53;;;29.20;79.20;;;;;;4938916;28;20435;-89
2021/09/13 12:59:18;;;;;;;3.30;3.10;;;29.00;79.40;;;;;;4942174;28;20875;-88
2021/09/13 13:01:45;;;;;;;3.97;3.67;;;28.40;79.30;;;;;;4939420;28;20449;-88
2021/09/13 13:04:14;;;;;;;3.60;3.30;;;28.40;83.40;;;;;;4937372;28;20528;-88
2021/09/13 13:06:41;;;;;;;6.23;3.90;;;28.70;83.70;;;;;;4936241;28;20513;-89
2021/09/13 13:09:09;;;;;;;3.60;3.30;;;28.70;84.90;;;;;;4938317;28;20575;-89
2021/09/13 13:11:36;;;;;;;38.13;8.07;;;28.50;84.40;;;;;;4941208;28;20437;-90
2021/09/13 13:14:03;;;;;;;8.50;3.73;;;28.20;84.20;;;;;;4937608;28;20913;-89
2021/09/13 13:16:46;;;;;;;3.70;3.40;;;28.00;83.30;;;;;;4942407;28;20446;-89
2021/09/13 13:19:14;;;;;;;3.90;3.33;;;28.20;84.70;;;;;;4939790;28;20544;-90
2021/09/13 13:21:42;;;;;;;4.17;3.87;;;28.50;83.60;;;;;;4944342;28;20956;-89
2021/09/13 13:24:09;;;;;;;4.03;3.20;;;28.80;80.20;;;;;;4942778;28;20438;-88
2021/09/13 13:26:36;;;;;;;3.17;2.97;;;28.70;77.80;;;;;;4945355;28;20794;-89